createdAt,value
2023-01-08T00:00:48.935Z,3.20
2023-01-08T00:03:15.977Z,3.20
2023-01-08T00:05:43.081Z,3.10
2023-01-08T00:08:10.031Z,3.10
2023-01-08T00:10:37.561Z,3.10
2023-01-08T00:13:04.529Z,3.10
2023-01-08T00:15:31.676Z,3.10
2023-01-08T00:17:58.546Z,3.20
2023-01-08T00:20:25.664Z,3.10
2023-01-08T00:22:52.795Z,3.10
2023-01-08T00:25:19.982Z,3.10
2023-01-08T00:27:46.755Z,3.10
2023-01-08T00:30:13.667Z,3.10
2023-01-08T00:32:40.456Z,3.10
2023-01-08T00:35:07.370Z,3.10
2023-01-08T00:37:34.132Z,3.10
2023-01-08T00:40:00.867Z,3.20
2023-01-08T00:42:27.769Z,3.20
2023-01-08T00:44:54.733Z,3.20
2023-01-08T00:47:21.476Z,3.10
2023-01-08T00:49:48.315Z,3.20
2023-01-08T00:52:15.077Z,3.20
2023-01-08T00:54:41.899Z,3.20
2023-01-08T00:57:08.722Z,3.30
2023-01-08T00:59:35.464Z,3.30
2023-01-08T01:02:02.438Z,3.30
2023-01-08T01:04:29.364Z,3.40
2023-01-08T01:06:56.190Z,3.40
2023-01-08T01:09:23.051Z,3.50
2023-01-08T01:11:49.855Z,3.50
2023-01-08T01:14:16.815Z,3.50
2023-01-08T01:16:44.099Z,3.60
2023-01-08T01:19:11.072Z,3.50
2023-01-08T01:21:37.913Z,3.50
2023-01-08T01:24:05.612Z,3.50
2023-01-08T01:26:33.080Z,3.50
2023-01-08T01:29:00.014Z,3.50
2023-01-08T01:31:27.802Z,3.60
2023-01-08T01:33:54.787Z,3.60
2023-01-08T01:36:25.318Z,3.60
2023-01-08T01:38:53.245Z,3.60
2023-01-08T01:41:27.717Z,3.70
2023-01-08T01:43:55.568Z,3.70
2023-01-08T01:46:22.296Z,3.60
2023-01-08T01:48:51.728Z,3.70
2023-01-08T01:51:19.290Z,3.70
2023-01-08T01:53:46.149Z,3.70
2023-01-08T01:56:12.955Z,3.70
2023-01-08T01:58:39.701Z,3.70
2023-01-08T02:01:08.305Z,3.80
2023-01-08T02:03:37.119Z,3.80
2023-01-08T02:06:08.723Z,3.80
2023-01-08T02:08:35.449Z,3.70
2023-01-08T02:11:08.462Z,3.70
2023-01-08T02:13:37.166Z,3.70
2023-01-08T02:16:24.265Z,3.70
2023-01-08T02:18:55.272Z,3.80
2023-01-08T02:21:54.605Z,3.80
2023-01-08T02:24:30.615Z,3.80
2023-01-08T02:26:58.658Z,3.80
2023-01-08T02:29:26.143Z,3.80
2023-01-08T02:31:52.930Z,3.80
2023-01-08T02:34:19.736Z,3.80
2023-01-08T02:36:46.493Z,3.90
2023-01-08T02:39:31.990Z,3.90
2023-01-08T02:42:07.894Z,3.90
2023-01-08T02:44:45.644Z,4.00
2023-01-08T02:47:17.845Z,4.00
2023-01-08T02:49:47.131Z,4.00
2023-01-08T02:52:15.481Z,4.00
2023-01-08T02:54:42.467Z,4.00
2023-01-08T02:57:12.134Z,4.00
2023-01-08T02:59:39.823Z,4.00
2023-01-08T03:02:07.275Z,4.00
2023-01-08T03:04:40.125Z,4.00
2023-01-08T03:07:06.946Z,4.00
2023-01-08T03:09:34.560Z,4.00
2023-01-08T03:12:14.809Z,4.10
2023-01-08T03:14:44.930Z,4.00
2023-01-08T03:17:18.254Z,4.10
2023-01-08T03:19:55.509Z,4.00
2023-01-08T03:22:22.788Z,4.00
2023-01-08T03:24:51.293Z,4.00
2023-01-08T03:27:20.762Z,4.00
2023-01-08T03:29:49.264Z,4.10
2023-01-08T03:32:17.558Z,4.10
2023-01-08T03:34:45.856Z,4.10
2023-01-08T03:37:13.881Z,4.10
2023-01-08T03:39:44.951Z,4.00
2023-01-08T03:42:13.416Z,4.10
2023-01-08T03:44:40.314Z,4.10
2023-01-08T03:47:08.444Z,4.20
2023-01-08T03:49:35.544Z,4.20
2023-01-08T03:52:02.435Z,4.10
2023-01-08T03:54:30.821Z,4.10
2023-01-08T03:56:57.748Z,4.10
2023-01-08T03:59:24.549Z,4.00
2023-01-08T04:01:51.456Z,4.10
2023-01-08T04:04:18.475Z,4.20
2023-01-08T04:06:45.309Z,4.20
2023-01-08T04:09:12.150Z,4.20
2023-01-08T04:11:38.979Z,4.20
2023-01-08T04:14:05.761Z,4.20
2023-01-08T04:16:34.711Z,4.20
2023-01-08T04:19:01.561Z,4.20
2023-01-08T04:21:28.369Z,4.20
2023-01-08T04:23:55.361Z,4.20
2023-01-08T04:26:22.164Z,4.20
2023-01-08T04:28:48.921Z,4.20
2023-01-08T04:31:15.767Z,4.20
2023-01-08T04:33:42.530Z,4.20
2023-01-08T04:36:10.139Z,4.30
2023-01-08T04:38:36.894Z,4.30
2023-01-08T04:41:03.777Z,4.30
2023-01-08T04:43:31.076Z,4.30
2023-01-08T04:46:00.724Z,4.30
2023-01-08T04:48:28.232Z,4.30
2023-01-08T04:50:55.141Z,4.30
2023-01-08T04:53:21.890Z,4.30
2023-01-08T04:55:48.665Z,4.30
2023-01-08T04:58:15.647Z,4.30
2023-01-08T05:00:42.506Z,4.30
2023-01-08T05:03:09.435Z,4.30
2023-01-08T05:05:36.391Z,4.30
2023-01-08T05:08:03.204Z,4.30
2023-01-08T05:10:30.179Z,4.40
2023-01-08T05:13:00.483Z,4.40
2023-01-08T05:15:27.356Z,4.30
2023-01-08T05:18:01.439Z,4.30
2023-01-08T05:20:28.831Z,4.30
2023-01-08T05:22:56.539Z,4.30
2023-01-08T05:25:23.399Z,4.40
2023-01-08T05:27:50.265Z,4.30
2023-01-08T05:30:17.140Z,4.30
2023-01-08T05:32:43.900Z,4.30
2023-01-08T05:35:10.716Z,4.30
2023-01-08T05:37:37.753Z,4.30
2023-01-08T05:40:04.724Z,4.30
2023-01-08T05:42:33.528Z,4.30
2023-01-08T05:45:00.279Z,4.30
2023-01-08T05:47:30.056Z,4.30
2023-01-08T05:49:56.882Z,4.30
2023-01-08T05:52:23.655Z,4.30
2023-01-08T05:54:50.527Z,4.30
2023-01-08T05:57:17.377Z,4.30
2023-01-08T05:59:44.130Z,4.30
2023-01-08T06:02:11.001Z,4.30
2023-01-08T06:04:37.924Z,4.30
2023-01-08T06:07:04.777Z,4.30
2023-01-08T06:09:31.551Z,4.30
2023-01-08T06:11:58.343Z,4.30
2023-01-08T06:14:25.163Z,4.30
2023-01-08T06:16:51.976Z,4.20
2023-01-08T06:19:21.813Z,4.20
2023-01-08T06:21:48.787Z,4.30
2023-01-08T06:24:15.620Z,4.30
2023-01-08T06:26:42.424Z,4.30
2023-01-08T06:29:09.466Z,4.30
2023-01-08T06:31:36.452Z,4.30
2023-01-08T06:34:03.262Z,4.30
2023-01-08T06:36:30.072Z,4.30
2023-01-08T06:38:56.870Z,4.30
2023-01-08T06:41:23.652Z,4.30
2023-01-08T06:43:50.438Z,4.30
2023-01-08T06:46:17.374Z,4.40
2023-01-08T06:48:44.192Z,4.40
2023-01-08T06:51:11.063Z,4.40
2023-01-08T06:53:37.839Z,4.40
2023-01-08T06:56:04.784Z,4.40
2023-01-08T06:58:31.683Z,4.40
2023-01-08T07:00:59.489Z,4.40
2023-01-08T07:03:26.639Z,4.40
2023-01-08T07:05:53.585Z,4.40
2023-01-08T07:08:20.341Z,4.40
2023-01-08T07:10:47.145Z,4.40
2023-01-08T07:13:14.053Z,4.40
2023-01-08T07:15:41.455Z,4.40
2023-01-08T07:18:09.901Z,4.40
2023-01-08T07:20:36.859Z,4.40
2023-01-08T07:23:04.773Z,4.40
2023-01-08T07:25:31.704Z,4.40
2023-01-08T07:27:58.970Z,4.50
2023-01-08T07:30:33.593Z,4.50
2023-01-08T07:33:01.416Z,4.50
2023-01-08T07:35:28.536Z,4.50
2023-01-08T07:37:55.390Z,4.40
2023-01-08T07:40:22.203Z,4.50
2023-01-08T07:42:49.187Z,4.40
2023-01-08T07:45:16.018Z,4.50
2023-01-08T07:47:42.800Z,4.40
2023-01-08T07:50:09.729Z,4.50
2023-01-08T07:52:36.575Z,4.50
2023-01-08T07:55:03.486Z,4.50
2023-01-08T07:57:30.349Z,4.50
2023-01-08T07:59:57.162Z,4.50
2023-01-08T08:02:24.095Z,4.50
2023-01-08T08:04:50.989Z,4.50
2023-01-08T08:07:17.778Z,4.60
2023-01-08T08:09:44.567Z,4.60
2023-01-08T08:12:11.373Z,4.60
2023-01-08T08:14:38.154Z,4.50
2023-01-08T08:17:05.026Z,4.50
2023-01-08T08:19:31.818Z,4.50
2023-01-08T08:21:58.573Z,4.50
2023-01-08T08:24:25.359Z,4.50
2023-01-08T08:26:54.274Z,4.60
2023-01-08T08:29:21.105Z,4.60
2023-01-08T08:31:47.860Z,4.50
2023-01-08T08:34:14.771Z,4.60
2023-01-08T08:36:41.565Z,4.50
2023-01-08T08:39:08.354Z,4.60
2023-01-08T08:41:35.768Z,4.60
2023-01-08T08:44:02.550Z,4.60
2023-01-08T08:46:29.776Z,4.60
2023-01-08T08:48:56.614Z,4.60
2023-01-08T08:51:23.550Z,4.60
2023-01-08T08:53:50.387Z,4.60
2023-01-08T08:56:17.252Z,4.60
2023-01-08T08:58:45.429Z,4.60
2023-01-08T09:01:12.394Z,4.60
2023-01-08T09:03:39.397Z,4.60
2023-01-08T09:06:06.425Z,4.60
2023-01-08T09:08:33.279Z,4.50
2023-01-08T09:11:02.209Z,4.50
2023-01-08T09:13:29.017Z,4.40
2023-01-08T09:15:58.136Z,4.60
2023-01-08T09:18:24.985Z,4.50
2023-01-08T09:20:51.764Z,4.50
2023-01-08T09:23:18.545Z,4.50
2023-01-08T09:25:45.522Z,4.50
2023-01-08T09:28:12.918Z,4.60
2023-01-08T09:30:40.233Z,4.50
2023-01-08T09:33:07.117Z,4.50
2023-01-08T09:35:34.305Z,4.60
2023-01-08T09:38:01.078Z,4.60
2023-01-08T09:40:43.124Z,4.70
2023-01-08T09:43:14.853Z,4.70
2023-01-08T09:45:41.988Z,4.60
2023-01-08T09:48:14.043Z,4.60
2023-01-08T09:50:40.888Z,4.60
2023-01-08T09:53:13.081Z,4.70
2023-01-08T09:55:40.597Z,4.70
2023-01-08T09:58:16.223Z,4.70
2023-01-08T10:00:43.058Z,4.60
2023-01-08T10:03:12.301Z,4.60
2023-01-08T10:05:41.793Z,4.70
2023-01-08T10:08:13.763Z,4.60
2023-01-08T10:10:41.605Z,4.70
2023-01-08T10:13:10.270Z,4.70
2023-01-08T10:15:37.164Z,4.70
2023-01-08T10:18:05.756Z,4.70
2023-01-08T10:20:33.007Z,4.70
2023-01-08T10:23:10.903Z,4.80
2023-01-08T10:25:48.387Z,4.70
2023-01-08T10:28:22.654Z,4.70
2023-01-08T10:30:50.322Z,4.70
2023-01-08T10:33:30.988Z,4.70
2023-01-08T10:36:00.020Z,4.70
2023-01-08T10:38:32.777Z,4.70
2023-01-08T10:41:01.219Z,4.70
2023-01-08T10:43:42.149Z,4.70
2023-01-08T10:46:14.471Z,4.70
2023-01-08T10:48:51.053Z,4.70
2023-01-08T10:51:23.754Z,4.70
2023-01-08T10:53:51.368Z,4.80
2023-01-08T10:56:28.703Z,4.80
2023-01-08T10:58:56.269Z,4.80
2023-01-08T11:01:24.458Z,4.70
2023-01-08T11:03:52.542Z,4.80
2023-01-08T11:06:21.382Z,4.80
2023-01-08T11:08:51.745Z,4.80
2023-01-08T11:11:19.203Z,4.80
2023-01-08T11:13:59.993Z,4.70
2023-01-08T11:16:37.278Z,4.70
2023-01-08T11:19:04.479Z,4.70
2023-01-08T11:21:32.133Z,4.70
2023-01-08T11:24:21.966Z,4.80
2023-01-08T11:26:50.531Z,4.80
2023-01-08T11:29:19.079Z,4.70
2023-01-08T11:31:45.867Z,4.80
2023-01-08T11:34:16.554Z,4.80
2023-01-08T11:36:54.723Z,4.80
2023-01-08T11:39:21.528Z,4.80
2023-01-08T11:42:07.226Z,4.70
2023-01-08T11:44:50.631Z,4.70
2023-01-08T11:47:27.412Z,4.70
2023-01-08T11:50:03.126Z,4.70
2023-01-08T11:52:45.411Z,4.70
2023-01-08T11:55:24.350Z,4.70
2023-01-08T11:58:00.138Z,4.80
2023-01-08T12:00:45.755Z,4.80
2023-01-08T12:03:21.926Z,4.80
2023-01-08T12:06:07.527Z,4.80
2023-01-08T12:08:45.460Z,4.80
2023-01-08T12:11:23.391Z,4.80
2023-01-08T12:13:50.144Z,4.80
2023-01-08T12:16:35.820Z,4.80
2023-01-08T12:19:05.676Z,4.80
2023-01-08T12:21:33.536Z,4.80
2023-01-08T12:24:12.100Z,4.80
2023-01-08T12:26:49.920Z,4.80
2023-01-08T12:29:16.742Z,4.80
2023-01-08T12:31:54.594Z,4.80
2023-01-08T12:34:31.320Z,4.70
2023-01-08T12:37:03.626Z,4.80
2023-01-08T12:39:34.014Z,4.80
2023-01-08T12:42:08.984Z,4.70
2023-01-08T12:44:36.740Z,4.80
2023-01-08T12:47:04.823Z,4.70
2023-01-08T12:49:48.521Z,4.70
2023-01-08T12:52:18.186Z,4.80
2023-01-08T12:55:00.636Z,4.80
2023-01-08T12:57:38.985Z,4.70
2023-01-08T13:00:19.623Z,4.70
2023-01-08T13:03:02.776Z,4.80
2023-01-08T13:05:36.713Z,4.80
2023-01-08T13:08:03.852Z,4.80
2023-01-08T13:10:36.803Z,4.80
2023-01-08T13:13:04.613Z,4.80
2023-01-08T13:15:31.916Z,4.80
2023-01-08T13:18:04.844Z,4.80
2023-01-08T13:20:32.268Z,4.80
2023-01-08T13:23:03.768Z,4.70
2023-01-08T13:25:32.321Z,4.70
2023-01-08T13:27:59.129Z,4.70
2023-01-08T13:30:35.208Z,4.70
2023-01-08T13:33:02.658Z,4.70
2023-01-08T13:35:31.390Z,4.70
2023-01-08T13:38:10.475Z,4.70
2023-01-08T13:40:43.246Z,4.70
2023-01-08T13:43:25.053Z,4.70
2023-01-08T13:46:00.961Z,4.70
2023-01-08T13:48:27.771Z,4.70
2023-01-08T13:50:54.760Z,4.70
2023-01-08T13:53:21.931Z,4.70
2023-01-08T13:55:57.071Z,4.70
2023-01-08T13:58:30.736Z,4.70
2023-01-08T14:00:58.416Z,4.70
2023-01-08T14:03:39.998Z,4.70
2023-01-08T14:06:07.129Z,4.70
2023-01-08T14:08:34.230Z,4.60
2023-01-08T14:11:02.844Z,4.60
2023-01-08T14:13:30.839Z,4.70
2023-01-08T14:16:00.883Z,4.60
2023-01-08T14:18:28.528Z,4.60
2023-01-08T14:20:55.766Z,4.70
2023-01-08T14:23:27.391Z,4.70
2023-01-08T14:25:54.430Z,4.70
2023-01-08T14:28:22.315Z,4.60
2023-01-08T14:30:53.561Z,4.70
2023-01-08T14:33:23.821Z,4.70
2023-01-08T14:35:51.387Z,4.60
2023-01-08T14:38:18.499Z,4.70
2023-01-08T14:40:51.200Z,4.60
2023-01-08T14:43:19.980Z,4.60
2023-01-08T14:45:50.691Z,4.60
2023-01-08T14:48:17.546Z,4.70
2023-01-08T14:50:45.565Z,4.70
2023-01-08T14:53:15.504Z,4.70
2023-01-08T14:55:43.951Z,4.70
2023-01-08T14:58:15.708Z,4.60
2023-01-08T15:00:42.968Z,4.70
2023-01-08T15:03:28.501Z,4.60
2023-01-08T15:05:56.062Z,4.60
2023-01-08T15:08:24.293Z,4.60
2023-01-08T15:10:58.019Z,4.70
2023-01-08T15:13:25.758Z,4.70
2023-01-08T15:15:54.743Z,4.70
2023-01-08T15:18:21.776Z,4.70
2023-01-08T15:20:48.667Z,4.70
2023-01-08T15:23:35.751Z,4.70
2023-01-08T15:26:02.556Z,4.70
2023-01-08T15:28:29.325Z,4.80
2023-01-08T15:30:56.446Z,4.80
2023-01-08T15:33:24.432Z,4.70
2023-01-08T15:35:51.527Z,4.80
2023-01-08T15:38:21.206Z,4.70
2023-01-08T15:40:48.498Z,4.70
2023-01-08T15:43:16.311Z,4.80
2023-01-08T15:45:44.461Z,4.70
2023-01-08T15:48:11.539Z,4.70
2023-01-08T15:50:40.157Z,4.70
2023-01-08T15:53:13.239Z,4.60
2023-01-08T15:55:43.444Z,4.70
2023-01-08T15:58:13.029Z,4.70
2023-01-08T16:00:40.717Z,4.60
2023-01-08T16:03:07.694Z,4.70
2023-01-08T16:05:34.797Z,4.70
2023-01-08T16:08:01.623Z,4.60
2023-01-08T16:10:29.307Z,4.70
2023-01-08T16:12:56.369Z,4.70
2023-01-08T16:15:24.198Z,4.70
2023-01-08T16:17:51.267Z,4.70
2023-01-08T16:20:18.289Z,4.70
2023-01-08T16:22:45.213Z,4.70
2023-01-08T16:25:12.236Z,4.70
2023-01-08T16:27:39.561Z,4.60
2023-01-08T16:30:07.951Z,4.70
2023-01-08T16:32:34.756Z,4.70
2023-01-08T16:35:01.603Z,4.60
2023-01-08T16:37:28.410Z,4.70
2023-01-08T16:39:55.285Z,4.60
2023-01-08T16:42:22.123Z,4.60
2023-01-08T16:44:49.108Z,4.60
2023-01-08T16:47:16.246Z,4.70
2023-01-08T16:49:43.331Z,4.60
2023-01-08T16:52:10.170Z,4.60
2023-01-08T16:54:37.025Z,4.60
2023-01-08T16:57:03.918Z,4.60
2023-01-08T16:59:33.000Z,4.60
2023-01-08T17:02:00.156Z,4.50
2023-01-08T17:04:28.782Z,4.50
2023-01-08T17:06:55.724Z,4.60
2023-01-08T17:09:22.579Z,4.60
2023-01-08T17:11:49.546Z,4.60
2023-01-08T17:14:16.392Z,4.60
2023-01-08T17:16:45.370Z,4.60
2023-01-08T17:19:12.667Z,4.60
2023-01-08T17:21:39.852Z,4.60
2023-01-08T17:24:07.029Z,4.50
2023-01-08T17:26:34.158Z,4.60
2023-01-08T17:29:01.039Z,4.60
2023-01-08T17:31:27.882Z,4.50
2023-01-08T17:33:54.748Z,4.50
2023-01-08T17:36:26.047Z,4.50
2023-01-08T17:38:53.869Z,4.50
2023-01-08T17:41:39.791Z,4.50
2023-01-08T17:44:07.611Z,4.40
2023-01-08T17:46:35.691Z,4.50
2023-01-08T17:49:02.945Z,4.50
2023-01-08T17:51:30.406Z,4.50
2023-01-08T17:53:57.245Z,4.50
2023-01-08T17:56:24.246Z,4.50
2023-01-08T17:58:51.381Z,4.50
2023-01-08T18:01:19.277Z,4.50
2023-01-08T18:03:46.227Z,4.50
2023-01-08T18:06:13.399Z,4.50
2023-01-08T18:08:40.883Z,4.40
2023-01-08T18:11:08.827Z,4.50
2023-01-08T18:13:35.923Z,4.50
2023-01-08T18:16:03.630Z,4.40
2023-01-08T18:18:30.443Z,4.40
2023-01-08T18:20:57.173Z,4.40
2023-01-08T18:23:24.176Z,4.40
2023-01-08T18:25:51.018Z,4.40
2023-01-08T18:28:17.900Z,4.40
2023-01-08T18:30:45.872Z,4.40
2023-01-08T18:33:13.597Z,4.50
2023-01-08T18:35:40.714Z,4.50
2023-01-08T18:38:09.958Z,4.50
2023-01-08T18:40:36.784Z,4.50
2023-01-08T18:43:03.598Z,4.50
2023-01-08T18:45:35.272Z,4.60
2023-01-08T18:48:02.811Z,4.60
2023-01-08T18:50:29.700Z,4.60
2023-01-08T18:52:56.522Z,4.50
2023-01-08T18:55:23.310Z,4.50
2023-01-08T18:57:51.231Z,4.50
2023-01-08T19:00:18.240Z,4.50
2023-01-08T19:02:45.078Z,4.50
2023-01-08T19:05:12.069Z,4.50
2023-01-08T19:07:40.928Z,4.50
2023-01-08T19:10:09.047Z,4.60
2023-01-08T19:12:35.939Z,4.60
2023-01-08T19:15:02.780Z,4.60
2023-01-08T19:17:30.397Z,4.60
2023-01-08T19:19:57.386Z,4.60
2023-01-08T19:22:26.823Z,4.60
2023-01-08T19:24:54.196Z,4.60
2023-01-08T19:27:21.442Z,4.50
2023-01-08T19:29:48.284Z,4.60
2023-01-08T19:32:15.207Z,4.60
2023-01-08T19:34:42.126Z,4.60
2023-01-08T19:37:09.315Z,4.70
2023-01-08T19:39:36.116Z,4.70
2023-01-08T19:42:21.657Z,4.70
2023-01-08T19:44:48.455Z,4.80
2023-01-08T19:47:15.664Z,4.70
2023-01-08T19:49:46.541Z,4.70
2023-01-08T19:52:14.653Z,4.70
2023-01-08T19:54:41.721Z,4.70
2023-01-08T19:57:08.784Z,4.70
2023-01-08T19:59:35.767Z,4.70
2023-01-08T20:02:02.743Z,4.70
2023-01-08T20:04:34.790Z,4.70
2023-01-08T20:07:01.576Z,4.70
2023-01-08T20:09:29.139Z,4.70
2023-01-08T20:11:56.146Z,4.70
2023-01-08T20:14:22.886Z,4.70
2023-01-08T20:16:49.696Z,4.70
2023-01-08T20:19:16.493Z,4.70
2023-01-08T20:21:43.315Z,4.80
2023-01-08T20:24:13.559Z,4.80
2023-01-08T20:26:42.008Z,4.80
2023-01-08T20:29:08.952Z,4.80
2023-01-08T20:31:36.269Z,4.70
2023-01-08T20:34:04.236Z,4.80
2023-01-08T20:36:32.267Z,4.70
2023-01-08T20:39:01.140Z,4.70
2023-01-08T20:41:28.562Z,4.70
2023-01-08T20:43:58.345Z,4.70
2023-01-08T20:46:29.092Z,4.70
2023-01-08T20:48:56.373Z,4.70
2023-01-08T20:51:23.325Z,4.70
2023-01-08T20:53:50.211Z,4.70
2023-01-08T20:56:17.302Z,4.70
2023-01-08T20:58:45.450Z,4.70
2023-01-08T21:01:13.902Z,4.70
2023-01-08T21:03:40.975Z,4.70
2023-01-08T21:06:09.386Z,4.70
2023-01-08T21:08:36.387Z,4.70
2023-01-08T21:11:04.862Z,4.70
2023-01-08T21:13:31.913Z,4.70
2023-01-08T21:16:09.709Z,4.70
2023-01-08T21:18:36.583Z,4.70
2023-01-08T21:21:04.394Z,4.70
2023-01-08T21:23:31.779Z,4.70
2023-01-08T21:26:03.178Z,4.80
2023-01-08T21:28:30.396Z,4.70
2023-01-08T21:31:03.192Z,4.70
2023-01-08T21:33:29.998Z,4.70
2023-01-08T21:35:56.884Z,4.70
2023-01-08T21:38:23.702Z,4.70
2023-01-08T21:40:58.792Z,4.70
2023-01-08T21:43:44.573Z,4.70
2023-01-08T21:46:11.476Z,4.70
2023-01-08T21:48:38.330Z,4.70
2023-01-08T21:51:05.271Z,4.70
2023-01-08T21:53:34.118Z,4.70
2023-01-08T21:56:02.728Z,4.60
2023-01-08T21:58:29.988Z,4.60
2023-01-08T22:00:56.910Z,4.60
2023-01-08T22:03:24.389Z,4.70
2023-01-08T22:06:00.391Z,4.60
2023-01-08T22:08:28.252Z,4.60
2023-01-08T22:10:55.360Z,4.60
2023-01-08T22:13:22.123Z,4.60
2023-01-08T22:15:48.917Z,4.60
2023-01-08T22:18:15.837Z,4.60
2023-01-08T22:20:46.758Z,4.60
2023-01-08T22:23:13.553Z,4.60
2023-01-08T22:25:40.971Z,4.60
2023-01-08T22:28:09.167Z,4.60
2023-01-08T22:30:37.685Z,4.50
2023-01-08T22:33:04.470Z,4.60
2023-01-08T22:35:31.276Z,4.60
2023-01-08T22:37:58.089Z,4.50
2023-01-08T22:40:24.883Z,4.60
2023-01-08T22:42:52.321Z,4.60
2023-01-08T22:45:19.126Z,4.60
2023-01-08T22:47:45.953Z,4.50
2023-01-08T22:50:12.855Z,4.60
2023-01-08T22:52:39.644Z,4.60
2023-01-08T22:55:06.727Z,4.60
2023-01-08T22:57:33.625Z,4.60
2023-01-08T23:00:00.414Z,4.50
2023-01-08T23:02:27.336Z,4.50
2023-01-08T23:04:54.261Z,4.50
2023-01-08T23:07:21.284Z,4.50
2023-01-08T23:09:48.431Z,4.50
2023-01-08T23:12:15.352Z,4.50
2023-01-08T23:14:42.705Z,4.50
2023-01-08T23:17:09.586Z,4.50
2023-01-08T23:19:37.126Z,4.50
2023-01-08T23:22:04.352Z,4.50
2023-01-08T23:24:31.949Z,4.50
2023-01-08T23:26:58.752Z,4.50
2023-01-08T23:29:29.765Z,4.50
2023-01-08T23:31:57.809Z,4.60
2023-01-08T23:34:25.206Z,4.50
2023-01-08T23:36:52.327Z,4.50
2023-01-08T23:39:19.179Z,4.50
2023-01-08T23:41:46.002Z,4.60
2023-01-08T23:44:14.163Z,4.50
2023-01-08T23:46:41.111Z,4.50
2023-01-08T23:49:08.274Z,4.50
2023-01-08T23:51:35.105Z,4.50
2023-01-08T23:54:02.149Z,4.50
2023-01-08T23:56:29.046Z,4.50
2023-01-08T23:58:56.744Z,4.50
